createdAt,value
2019-01-25T00:00:48.311Z,44.50
2019-01-25T00:01:48.320Z,45.40
2019-01-25T00:02:48.323Z,43.60
2019-01-25T00:05:03.008Z,45.40
2019-01-25T00:06:03.018Z,41.90
2019-01-25T00:07:03.018Z,44.70
2019-01-25T00:11:11.589Z,44.00
2019-01-25T00:12:32.592Z,43.70
2019-01-25T00:13:14.528Z,44.40
2019-01-25T00:14:11.609Z,43.40
2019-01-25T00:15:36.609Z,44.20
2019-01-25T00:16:15.526Z,44.60
2019-01-25T00:17:33.091Z,44.30
2019-01-25T00:18:33.100Z,43.70
2019-01-25T00:19:12.591Z,43.50
2019-01-25T00:20:12.592Z,44.70
2019-01-25T00:21:15.588Z,44.60
2019-01-25T00:22:12.591Z,43.50
2019-01-25T00:23:35.025Z,43.80
2019-01-25T00:25:44.933Z,46.20
2019-01-25T00:26:48.451Z,46.60
2019-01-25T00:28:05.941Z,44.50
2019-01-25T00:30:37.667Z,45.20
2019-01-25T00:31:37.674Z,43.10
2019-01-25T00:32:19.168Z,44.40
2019-01-25T00:36:20.848Z,42.80
2019-01-25T00:37:45.305Z,43.70
2019-01-25T00:38:20.804Z,42.10
2019-01-25T00:39:21.307Z,42.00
2019-01-25T00:42:13.644Z,42.70
2019-01-25T00:42:55.651Z,44.20
2019-01-25T00:43:52.651Z,44.10
2019-01-25T00:45:14.151Z,43.80
2019-01-25T00:46:14.151Z,42.60
2019-01-25T00:53:24.422Z,42.70
2019-01-25T00:54:06.932Z,42.20
2019-01-25T00:55:06.367Z,43.00
2019-01-25T00:57:35.148Z,43.10
2019-01-25T00:58:36.582Z,42.60
2019-01-25T00:59:38.659Z,42.90
2019-01-25T01:00:38.583Z,42.20
2019-01-25T01:01:36.082Z,44.20
2019-01-25T01:02:35.649Z,42.20
2019-01-25T01:03:35.650Z,41.90
2019-01-25T01:04:41.582Z,42.50
2019-01-25T01:05:36.147Z,43.60
2019-01-25T01:06:36.147Z,42.80
2019-01-25T01:07:57.148Z,43.90
2019-01-25T01:11:43.819Z,43.00
2019-01-25T01:14:15.287Z,42.30
2019-01-25T01:15:39.790Z,42.70
2019-01-25T01:16:15.290Z,43.90
2019-01-25T01:18:47.002Z,43.00
2019-01-25T01:19:47.946Z,44.00
2019-01-25T01:20:50.021Z,41.80
2019-01-25T01:21:47.012Z,43.10
2019-01-25T01:24:20.690Z,43.10
2019-01-25T01:25:18.729Z,44.20
2019-01-25T01:29:26.163Z,44.20
2019-01-25T01:32:01.505Z,44.40
2019-01-25T01:32:59.443Z,43.80
2019-01-25T01:34:18.509Z,44.30
2019-01-25T01:36:29.230Z,44.10
2019-01-25T01:40:37.386Z,43.00
2019-01-25T01:41:35.923Z,45.30
2019-01-25T01:45:42.158Z,44.00
2019-01-25T01:46:48.165Z,44.00
2019-01-25T01:49:37.226Z,44.10
2019-01-25T01:50:37.294Z,43.10
2019-01-25T01:51:16.989Z,44.00
2019-01-25T01:52:16.991Z,44.10
2019-01-25T01:53:20.989Z,43.20
2019-01-25T01:54:17.489Z,43.60
2019-01-25T01:55:19.432Z,43.80
2019-01-25T01:56:17.492Z,44.90
2019-01-25T01:57:31.990Z,44.90
2019-01-25T01:58:50.426Z,44.70
2019-01-25T01:59:38.988Z,43.30
2019-01-25T02:00:39.000Z,43.60
2019-01-25T02:01:38.993Z,43.30
2019-01-25T02:05:24.367Z,43.70
2019-01-25T02:06:24.367Z,44.50
2019-01-25T02:07:24.366Z,42.10
2019-01-25T02:11:31.430Z,45.10
2019-01-25T02:12:31.439Z,42.80
2019-01-25T02:13:31.445Z,43.40
2019-01-25T02:17:38.500Z,43.40
2019-01-25T02:18:38.507Z,42.20
2019-01-25T02:19:37.966Z,42.40
2019-01-25T02:23:46.567Z,42.10
2019-01-25T02:26:18.898Z,44.10
2019-01-25T02:29:14.821Z,40.80
2019-01-25T02:30:14.839Z,40.10
2019-01-25T02:31:14.837Z,41.00
2019-01-25T02:33:50.555Z,41.30
2019-01-25T02:34:25.565Z,41.10
2019-01-25T02:35:25.565Z,41.40
2019-01-25T02:37:58.276Z,41.40
2019-01-25T02:43:36.622Z,39.90
2019-01-25T02:44:39.621Z,38.70
2019-01-25T02:45:36.623Z,41.30
2019-01-25T02:46:43.146Z,39.80
2019-01-25T02:47:37.120Z,39.20
2019-01-25T02:53:37.207Z,38.30
2019-01-25T02:54:37.209Z,40.30
2019-01-25T02:55:44.143Z,39.30
2019-01-25T02:56:16.210Z,34.30
2019-01-25T03:00:28.838Z,32.10
2019-01-25T03:01:18.672Z,31.80
2019-01-25T03:02:19.339Z,32.30
2019-01-25T03:03:19.341Z,33.40
2019-01-25T03:05:55.576Z,34.00
2019-01-25T03:07:15.503Z,34.70
2019-01-25T03:07:53.005Z,33.60
2019-01-25T03:09:13.079Z,34.20
2019-01-25T03:11:46.925Z,33.80
2019-01-25T03:13:54.897Z,33.40
2019-01-25T03:16:30.354Z,33.20
2019-01-25T03:17:26.864Z,34.10
2019-01-25T03:18:26.863Z,32.90
2019-01-25T03:22:34.292Z,35.00
2019-01-25T03:23:30.298Z,33.20
2019-01-25T03:24:30.295Z,33.80
2019-01-25T03:25:32.233Z,33.70
2019-01-25T03:28:05.629Z,32.90
2019-01-25T03:29:02.636Z,34.10
2019-01-25T03:30:25.144Z,32.10
2019-01-25T03:34:29.055Z,29.50
2019-01-25T03:35:05.764Z,28.70
2019-01-25T03:36:05.752Z,30.00
2019-01-25T03:38:37.472Z,28.80
2019-01-25T03:41:12.828Z,29.30
2019-01-25T03:42:14.835Z,29.00
2019-01-25T03:43:33.834Z,28.20
2019-01-25T03:44:13.334Z,29.10
2019-01-25T03:46:49.002Z,27.10
2019-01-25T03:47:49.009Z,26.60
2019-01-25T03:48:49.012Z,27.00
2019-01-25T03:49:49.014Z,27.30
2019-01-25T03:51:12.990Z,26.40
2019-01-25T03:51:52.444Z,26.90
2019-01-25T03:52:48.839Z,27.30
2019-01-25T03:53:49.507Z,28.20
2019-01-25T03:54:55.514Z,27.80
2019-01-25T03:56:14.023Z,28.10
2019-01-25T03:57:25.013Z,28.50
2019-01-25T03:58:11.006Z,28.20
2019-01-25T03:59:11.006Z,27.90
2019-01-25T03:59:50.018Z,28.10
2019-01-25T04:01:21.507Z,26.90
2019-01-25T04:01:52.466Z,26.50
2019-01-25T04:02:51.942Z,27.00
2019-01-25T04:03:52.465Z,27.40
2019-01-25T04:05:11.549Z,26.80
2019-01-25T04:05:50.530Z,27.00
2019-01-25T04:07:14.006Z,25.50
2019-01-25T04:07:50.223Z,25.60
2019-01-25T04:09:13.439Z,24.80
2019-01-25T04:09:51.003Z,27.00
2019-01-25T04:11:12.026Z,26.30
2019-01-25T04:12:18.939Z,25.30
2019-01-25T04:15:55.057Z,24.50
2019-01-25T04:17:19.562Z,25.50
2019-01-25T04:18:16.064Z,24.20
2019-01-25T04:19:16.063Z,24.80
2019-01-25T04:23:02.215Z,24.00
2019-01-25T04:25:31.057Z,25.10
2019-01-25T04:26:34.497Z,24.30
2019-01-25T04:27:33.999Z,24.10
2019-01-25T04:33:10.997Z,25.30
2019-01-25T04:34:13.562Z,23.80
2019-01-25T04:35:30.578Z,23.40
2019-01-25T04:36:33.498Z,23.30
2019-01-25T04:40:16.932Z,23.20
2019-01-25T04:41:36.375Z,23.20
2019-01-25T04:42:34.939Z,23.20
2019-01-25T04:43:13.938Z,22.80
2019-01-25T04:48:58.825Z,22.60
2019-01-25T04:51:49.287Z,22.20
2019-01-25T04:52:24.792Z,24.80
2019-01-25T04:53:24.794Z,23.80
2019-01-25T04:54:24.802Z,23.50
2019-01-25T04:55:25.322Z,23.50
2019-01-25T04:56:30.230Z,21.90
2019-01-25T04:57:30.727Z,23.20
2019-01-25T05:00:19.205Z,22.40
2019-01-25T05:00:56.763Z,23.50
2019-01-25T05:01:56.764Z,23.40
2019-01-25T05:03:00.765Z,23.20
2019-01-25T05:03:57.262Z,24.00
2019-01-25T05:05:18.262Z,22.80
2019-01-25T05:05:57.262Z,22.40
2019-01-25T05:06:57.769Z,22.70
2019-01-25T05:07:59.218Z,22.50
2019-01-25T05:09:01.769Z,23.00
2019-01-25T05:09:57.763Z,22.10
2019-01-25T05:10:57.763Z,22.80
2019-01-25T05:13:50.474Z,22.60
2019-01-25T05:16:04.765Z,22.80
2019-01-25T05:25:08.089Z,23.10
2019-01-25T05:27:22.145Z,22.40
2019-01-25T05:31:50.528Z,21.90
2019-01-25T05:35:28.429Z,22.70
2019-01-25T05:36:31.424Z,24.00
2019-01-25T05:37:30.429Z,23.10
2019-01-25T05:41:34.579Z,22.60
2019-01-25T05:45:34.457Z,23.70
2019-01-25T05:46:42.965Z,21.80
2019-01-25T05:47:55.461Z,22.90
2019-01-25T05:48:36.399Z,22.90
2019-01-25T05:52:40.207Z,23.20
2019-01-25T05:53:37.717Z,23.10
2019-01-25T05:54:37.727Z,25.40
2019-01-25T05:55:38.246Z,24.40
2019-01-25T05:56:59.215Z,24.10
2019-01-25T06:02:36.713Z,24.20
2019-01-25T06:03:40.948Z,23.70
2019-01-25T06:04:17.888Z,23.70
2019-01-25T06:05:16.955Z,24.50
2019-01-25T06:06:37.951Z,23.40
2019-01-25T06:07:16.947Z,23.20
2019-01-25T06:09:52.432Z,24.40
2019-01-25T06:17:26.003Z,23.40
2019-01-25T06:18:24.009Z,23.90
2019-01-25T06:19:07.008Z,24.30
2019-01-25T06:20:02.594Z,23.20
2019-01-25T06:22:49.304Z,25.00
2019-01-25T06:23:35.318Z,23.60
2019-01-25T06:24:38.316Z,23.30
2019-01-25T06:25:35.322Z,23.90
2019-01-25T06:28:07.040Z,26.40
2019-01-25T06:30:42.503Z,26.60
2019-01-25T06:32:01.449Z,25.60
2019-01-25T06:32:40.493Z,26.70
2019-01-25T06:34:00.022Z,25.40
2019-01-25T06:34:39.046Z,25.60
2019-01-25T06:38:44.144Z,24.50
2019-01-25T06:39:44.152Z,25.90
2019-01-25T06:40:44.155Z,25.30
2019-01-25T06:41:47.649Z,26.10
2019-01-25T06:45:46.668Z,25.40
2019-01-25T06:47:10.902Z,24.60
2019-01-25T06:47:47.402Z,26.70
2019-01-25T06:52:15.061Z,25.20
2019-01-25T06:54:22.763Z,23.60
2019-01-25T07:00:20.888Z,26.00
2019-01-25T07:01:20.945Z,25.00
2019-01-25T07:03:36.108Z,24.20
2019-01-25T07:04:36.114Z,26.00
2019-01-25T07:05:36.118Z,24.70
2019-01-25T07:09:44.615Z,22.70
2019-01-25T07:11:04.690Z,23.80
2019-01-25T07:11:43.148Z,25.00
2019-01-25T07:12:44.254Z,24.70
2019-01-25T07:13:47.181Z,24.70
2019-01-25T07:14:48.616Z,24.30
2019-01-25T07:17:18.580Z,24.70
2019-01-25T07:18:17.080Z,24.50
2019-01-25T07:19:21.148Z,23.40
2019-01-25T07:20:22.149Z,23.90
2019-01-25T07:21:43.146Z,23.30
2019-01-25T07:25:22.300Z,23.20
2019-01-25T07:27:50.880Z,22.40
2019-01-25T07:29:11.948Z,21.90
2019-01-25T07:29:50.887Z,21.80
2019-01-25T07:30:54.406Z,22.80
2019-01-25T07:33:22.637Z,23.00
2019-01-25T07:34:42.925Z,22.30
2019-01-25T07:35:22.618Z,23.60
2019-01-25T07:36:47.122Z,21.80
2019-01-25T07:37:50.114Z,21.40
2019-01-25T07:38:23.585Z,21.10
2019-01-25T07:39:23.114Z,21.20
2019-01-25T07:40:24.584Z,20.60
2019-01-25T07:41:29.633Z,20.90
2019-01-25T07:43:54.827Z,21.30
2019-01-25T07:46:29.288Z,20.60
2019-01-25T07:47:47.303Z,20.10
2019-01-25T07:48:27.746Z,21.10
2019-01-25T07:49:27.245Z,19.20
2019-01-25T07:52:23.104Z,19.00
2019-01-25T07:53:12.119Z,20.30
2019-01-25T07:55:29.858Z,19.70
2019-01-25T07:56:50.823Z,20.30
2019-01-25T07:59:05.106Z,19.40
2019-01-25T08:00:05.116Z,20.40
2019-01-25T08:02:39.780Z,19.90
2019-01-25T08:03:57.721Z,20.00
2019-01-25T08:07:08.427Z,21.40
2019-01-25T08:08:34.900Z,19.90
2019-01-25T08:10:42.149Z,19.40
2019-01-25T08:13:14.642Z,19.00
2019-01-25T08:14:46.629Z,19.60
2019-01-25T08:15:46.641Z,20.80
2019-01-25T08:18:06.785Z,19.90
2019-01-25T08:20:21.748Z,20.40
2019-01-25T08:21:19.777Z,21.20
2019-01-25T08:22:41.248Z,20.80
2019-01-25T08:23:41.250Z,20.90
2019-01-25T08:24:24.256Z,20.80
2019-01-25T08:25:20.280Z,19.90
2019-01-25T08:26:20.747Z,20.10
2019-01-25T08:27:20.781Z,20.10
2019-01-25T08:28:22.722Z,20.80
2019-01-25T08:29:46.203Z,19.80
2019-01-25T08:30:42.248Z,20.40
2019-01-25T08:31:21.248Z,20.30
2019-01-25T08:32:21.265Z,20.80
2019-01-25T08:33:21.412Z,20.20
2019-01-25T08:36:17.712Z,20.10
2019-01-25T08:37:17.749Z,20.20
2019-01-25T08:37:56.186Z,20.80
2019-01-25T08:39:20.237Z,19.80
2019-01-25T08:40:00.728Z,19.60
2019-01-25T08:41:24.269Z,20.40
2019-01-25T08:41:57.216Z,20.90
2019-01-25T08:42:57.221Z,20.30
2019-01-25T08:44:19.165Z,21.30
2019-01-25T08:45:22.700Z,20.30
2019-01-25T08:46:11.714Z,19.10
2019-01-25T08:46:57.717Z,20.10
2019-01-25T08:48:11.716Z,19.70
2019-01-25T08:48:59.203Z,20.60
2019-01-25T08:49:58.375Z,20.50
2019-01-25T08:51:02.237Z,19.80
2019-01-25T08:51:58.214Z,20.50
2019-01-25T08:52:58.722Z,19.90
2019-01-25T08:56:05.088Z,21.50
2019-01-25T08:56:54.566Z,20.60
2019-01-25T08:57:30.066Z,20.20
2019-01-25T09:00:28.777Z,19.60
2019-01-25T09:01:22.783Z,20.40
2019-01-25T09:02:08.718Z,20.00
2019-01-25T09:03:03.756Z,20.00
2019-01-25T09:04:05.220Z,20.90
2019-01-25T09:05:03.759Z,20.70
2019-01-25T09:06:05.719Z,20.90
2019-01-25T09:07:27.288Z,21.00
2019-01-25T09:08:02.783Z,20.70
2019-01-25T09:09:02.118Z,20.60
2019-01-25T09:10:02.782Z,21.00
2019-01-25T09:11:29.782Z,21.00
2019-01-25T09:12:03.285Z,21.60
2019-01-25T09:13:41.286Z,19.50
2019-01-25T09:14:02.633Z,20.40
2019-01-25T09:15:02.717Z,20.90
2019-01-25T09:16:23.778Z,20.90
2019-01-25T09:18:39.001Z,20.10
2019-01-25T09:19:55.952Z,20.90
2019-01-25T09:22:09.628Z,21.20
2019-01-25T09:23:07.177Z,21.00
2019-01-25T09:24:31.681Z,20.20
2019-01-25T09:25:42.678Z,21.00
2019-01-25T09:26:28.679Z,20.50
2019-01-25T09:27:21.678Z,20.70
2019-01-25T09:28:07.680Z,20.80
2019-01-25T09:29:11.677Z,20.30
2019-01-25T09:30:14.176Z,21.30
2019-01-25T09:31:31.185Z,20.70
2019-01-25T09:32:08.177Z,21.90
2019-01-25T09:33:08.679Z,21.40
2019-01-25T09:34:09.652Z,21.70
2019-01-25T09:35:12.026Z,23.00
2019-01-25T09:36:09.611Z,23.00
2019-01-25T09:37:11.611Z,22.30
2019-01-25T09:38:09.181Z,21.70
2019-01-25T09:39:09.185Z,21.00
2019-01-25T09:40:09.177Z,21.50
2019-01-25T09:41:12.692Z,21.50
2019-01-25T09:44:02.413Z,22.00
2019-01-25T09:44:41.419Z,21.80
2019-01-25T09:45:41.423Z,21.40
2019-01-25T09:48:38.245Z,21.70
2019-01-25T09:49:17.252Z,22.90
2019-01-25T09:51:51.850Z,23.80
2019-01-25T09:52:48.851Z,24.90
2019-01-25T09:55:35.066Z,21.70
2019-01-25T09:56:21.082Z,21.30
2019-01-25T09:57:46.077Z,21.60
2019-01-25T10:00:13.063Z,23.30
2019-01-25T10:00:52.844Z,23.20
2019-01-25T10:01:52.301Z,22.70
2019-01-25T10:05:59.604Z,22.50
2019-01-25T10:06:59.611Z,23.10
2019-01-25T10:09:55.913Z,23.40
2019-01-25T10:10:34.917Z,23.10
2019-01-25T10:11:34.916Z,22.40
2019-01-25T10:12:43.105Z,23.20
2019-01-25T10:13:44.471Z,21.80
2019-01-25T10:14:55.669Z,22.80
2019-01-25T10:20:14.281Z,23.30
2019-01-25T10:21:14.270Z,22.90
2019-01-25T10:22:14.267Z,23.10
2019-01-25T10:26:21.340Z,21.90
2019-01-25T10:27:42.345Z,21.70
2019-01-25T10:28:21.350Z,21.80
2019-01-25T10:29:20.930Z,21.80
2019-01-25T10:35:22.809Z,23.50
2019-01-25T10:38:50.178Z,23.30
2019-01-25T10:40:04.611Z,22.80
2019-01-25T10:42:11.298Z,22.80
2019-01-25T10:45:04.428Z,22.50
2019-01-25T10:45:39.646Z,23.00
2019-01-25T10:46:39.647Z,22.70
2019-01-25T10:49:21.353Z,23.00
2019-01-25T10:50:38.332Z,22.50
2019-01-25T10:51:15.359Z,23.90
2019-01-25T10:55:43.872Z,21.30
2019-01-25T10:56:21.428Z,22.30
2019-01-25T10:57:21.430Z,22.20
2019-01-25T11:00:04.614Z,22.40
2019-01-25T11:02:30.023Z,21.90
2019-01-25T11:03:28.523Z,22.00
2019-01-25T11:04:24.593Z,22.10
2019-01-25T11:05:51.029Z,22.00
2019-01-25T11:06:39.156Z,21.80
2019-01-25T11:07:31.088Z,21.00
2019-01-25T11:08:25.088Z,22.10
2019-01-25T11:09:39.586Z,21.20
2019-01-25T11:10:50.088Z,22.70
2019-01-25T11:11:24.934Z,21.40
2019-01-25T11:15:53.575Z,20.80
2019-01-25T11:16:43.071Z,21.50
2019-01-25T11:17:50.073Z,20.60
2019-01-25T11:20:21.814Z,20.80
2019-01-25T11:24:22.437Z,22.00
2019-01-25T11:28:35.660Z,15.40
2019-01-25T11:29:15.191Z,15.40
2019-01-25T11:34:51.434Z,15.00
2019-01-25T11:35:51.439Z,14.50
2019-01-25T11:36:55.940Z,14.10
2019-01-25T11:39:23.154Z,14.90
2019-01-25T11:40:23.161Z,14.40
2019-01-25T11:41:23.167Z,14.90
2019-01-25T11:42:47.649Z,15.80
2019-01-25T11:46:26.425Z,14.50
2019-01-25T11:47:50.445Z,13.70
2019-01-25T11:48:26.438Z,14.30
2019-01-25T11:49:47.003Z,13.30
2019-01-25T11:51:59.696Z,13.20
2019-01-25T11:53:02.240Z,12.70
2019-01-25T11:53:58.235Z,12.20
2019-01-25T11:56:29.944Z,11.90
2019-01-25T11:58:05.917Z,13.40
2019-01-25T12:00:05.177Z,12.50
2019-01-25T12:06:06.792Z,12.80
2019-01-25T12:06:43.197Z,12.10
2019-01-25T12:07:43.862Z,12.70
2019-01-25T12:12:00.515Z,12.90
2019-01-25T12:12:29.860Z,12.60
2019-01-25T12:13:51.541Z,13.20
2019-01-25T12:14:45.022Z,12.70
2019-01-25T12:20:11.014Z,13.80
2019-01-25T12:24:16.660Z,12.50
2019-01-25T12:25:15.223Z,11.10
2019-01-25T12:26:36.679Z,11.70
2019-01-25T12:27:36.728Z,11.80
2019-01-25T12:30:13.854Z,10.70
2019-01-25T12:31:25.861Z,11.50
2019-01-25T12:31:50.940Z,11.50
2019-01-25T12:33:11.870Z,11.30
2019-01-25T12:33:54.860Z,10.60
2019-01-25T12:35:07.403Z,10.20
2019-01-25T12:35:51.388Z,11.00
2019-01-25T12:36:51.355Z,10.60
2019-01-25T12:39:26.605Z,10.00
2019-01-25T12:40:25.095Z,10.50
2019-01-25T12:41:23.597Z,9.80
2019-01-25T12:43:54.253Z,9.40
2019-01-25T12:45:19.462Z,10.00
2019-01-25T12:45:54.965Z,10.10
2019-01-25T12:48:46.931Z,10.70
2019-01-25T12:49:40.686Z,9.80
2019-01-25T12:50:30.684Z,9.80
2019-01-25T12:52:59.842Z,9.80
2019-01-25T12:53:58.408Z,10.40
2019-01-25T12:55:19.407Z,9.90
2019-01-25T12:56:02.407Z,10.70
2019-01-25T12:57:19.908Z,9.90
2019-01-25T12:57:58.908Z,10.40
2019-01-25T12:59:00.919Z,10.10
2019-01-25T13:00:19.471Z,9.70
2019-01-25T13:01:24.908Z,8.90
2019-01-25T13:03:31.304Z,10.80
2019-01-25T13:04:31.276Z,9.50
2019-01-25T13:05:31.286Z,9.70
2019-01-25T13:06:34.490Z,10.50
2019-01-25T13:07:32.200Z,9.40
2019-01-25T13:10:02.937Z,10.00
2019-01-25T13:11:26.114Z,9.70
2019-01-25T13:12:07.686Z,10.00
2019-01-25T13:14:56.263Z,10.40
2019-01-25T13:15:35.289Z,10.20
2019-01-25T13:16:35.273Z,10.40
2019-01-25T13:17:39.270Z,10.80
2019-01-25T13:18:56.793Z,10.40
2019-01-25T13:19:38.704Z,10.10
2019-01-25T13:20:39.566Z,10.00
2019-01-25T13:24:42.371Z,11.10
2019-01-25T13:25:47.127Z,10.80
2019-01-25T13:26:44.846Z,10.80
2019-01-25T13:29:38.272Z,10.40
2019-01-25T13:31:51.113Z,10.20
2019-01-25T13:32:45.629Z,10.80
2019-01-25T13:33:45.626Z,10.50
2019-01-25T13:34:49.628Z,10.20
2019-01-25T13:35:47.063Z,10.40
2019-01-25T13:36:46.125Z,11.60
2019-01-25T13:37:46.145Z,9.90
2019-01-25T13:39:10.063Z,9.70
2019-01-25T13:39:46.626Z,9.50
2019-01-25T13:40:52.591Z,10.10
2019-01-25T13:41:46.627Z,10.50
2019-01-25T13:43:07.643Z,10.40
2019-01-25T13:43:49.143Z,10.90
2019-01-25T13:46:21.979Z,10.50
2019-01-25T13:47:18.488Z,10.60
2019-01-25T13:48:39.488Z,10.50
2019-01-25T13:49:20.988Z,9.70
2019-01-25T13:50:18.214Z,10.80
2019-01-25T13:51:43.485Z,11.00
2019-01-25T13:52:18.986Z,10.60
2019-01-25T13:53:18.988Z,10.50
2019-01-25T13:54:18.574Z,10.60
2019-01-25T13:55:19.485Z,11.70
2019-01-25T13:59:29.535Z,11.30
2019-01-25T14:01:04.141Z,10.30
2019-01-25T14:01:34.495Z,11.10
2019-01-25T14:05:33.259Z,11.50
2019-01-25T14:08:04.710Z,11.20
2019-01-25T14:09:08.658Z,12.30
2019-01-25T14:11:36.298Z,11.70
2019-01-25T14:12:36.264Z,11.20
2019-01-25T14:13:36.271Z,11.90
2019-01-25T14:15:02.767Z,11.50
2019-01-25T14:17:09.558Z,11.30
2019-01-25T14:18:08.137Z,11.50
2019-01-25T14:19:10.558Z,11.50
2019-01-25T14:20:12.124Z,11.80
2019-01-25T14:22:40.092Z,11.70
2019-01-25T14:23:40.097Z,11.80
2019-01-25T14:24:40.159Z,12.00
2019-01-25T14:27:15.236Z,12.80
2019-01-25T14:28:17.243Z,12.00
2019-01-25T14:29:15.250Z,12.00
2019-01-25T14:32:13.433Z,11.80
2019-01-25T14:33:07.986Z,12.30
2019-01-25T14:34:14.507Z,12.50
2019-01-25T14:34:46.599Z,12.20
2019-01-25T14:35:47.473Z,13.50
2019-01-25T14:36:47.473Z,12.80
2019-01-25T14:38:11.974Z,13.30
2019-01-25T14:38:47.995Z,13.30
2019-01-25T14:39:47.975Z,12.40
2019-01-25T14:43:54.892Z,13.00
2019-01-25T14:46:22.369Z,13.30
2019-01-25T14:48:57.320Z,13.30
2019-01-25T14:49:55.288Z,12.60
2019-01-25T14:50:53.825Z,12.70
2019-01-25T14:51:54.327Z,13.70
2019-01-25T14:54:28.066Z,14.60
2019-01-25T14:55:47.637Z,13.70
2019-01-25T14:56:27.157Z,15.30
2019-01-25T14:58:59.807Z,14.60
2019-01-25T15:00:15.372Z,13.60
2019-01-25T15:00:57.797Z,14.90
2019-01-25T15:02:03.873Z,14.40
2019-01-25T15:04:29.218Z,14.50
2019-01-25T15:05:53.745Z,15.00
2019-01-25T15:06:43.222Z,15.10
2019-01-25T15:09:21.216Z,15.50
2019-01-25T15:10:00.960Z,16.40
2019-01-25T15:12:35.215Z,17.10
2019-01-25T15:16:42.369Z,18.00
2019-01-25T15:18:01.292Z,16.80
2019-01-25T15:21:45.382Z,18.00
2019-01-25T15:24:37.291Z,18.80
2019-01-25T15:26:47.827Z,18.80
2019-01-25T15:27:44.833Z,18.50
2019-01-25T15:31:51.977Z,19.50
2019-01-25T15:37:25.277Z,19.90
2019-01-25T15:38:22.304Z,19.90
2019-01-25T15:39:22.287Z,20.30
2019-01-25T15:41:53.287Z,21.20
2019-01-25T15:44:50.412Z,20.80
2019-01-25T15:45:50.406Z,22.90
2019-01-25T15:46:43.397Z,21.90
2019-01-25T15:48:04.897Z,22.10
2019-01-25T15:48:35.897Z,21.70
2019-01-25T15:51:01.491Z,21.90
2019-01-25T15:52:01.373Z,21.70
2019-01-25T15:53:01.873Z,22.60
2019-01-25T15:55:38.076Z,20.80
2019-01-25T15:56:37.593Z,21.40
2019-01-25T16:00:44.899Z,23.20
2019-01-25T16:01:42.342Z,24.00
2019-01-25T16:04:38.569Z,26.30
2019-01-25T16:05:35.568Z,26.30
2019-01-25T16:06:14.567Z,26.50
2019-01-25T16:10:42.780Z,27.10
2019-01-25T16:11:40.233Z,27.40
2019-01-25T16:12:38.765Z,26.10
2019-01-25T16:14:50.965Z,27.50
2019-01-25T16:17:24.582Z,26.00
2019-01-25T16:18:46.249Z,25.30
2019-01-25T16:19:46.252Z,25.60
2019-01-25T16:23:31.845Z,25.70
2019-01-25T16:24:52.826Z,25.30
2019-01-25T16:25:31.824Z,25.80
2019-01-25T16:28:28.539Z,25.20
2019-01-25T16:29:03.554Z,25.40
2019-01-25T16:30:03.028Z,26.70
2019-01-25T16:34:10.434Z,24.90
2019-01-25T16:35:12.942Z,25.70
2019-01-25T16:40:45.125Z,26.60
2019-01-25T16:43:37.574Z,26.00
2019-01-25T16:44:42.097Z,26.80
2019-01-25T16:45:37.581Z,27.40
2019-01-25T16:46:17.088Z,27.20
2019-01-25T16:48:49.875Z,25.90
2019-01-25T16:49:53.401Z,27.70
2019-01-25T16:50:48.940Z,28.30
2019-01-25T16:52:11.907Z,28.10
2019-01-25T16:54:41.252Z,28.40
2019-01-25T16:55:45.273Z,29.10
2019-01-25T16:56:41.257Z,28.90
2019-01-25T17:00:49.854Z,30.20
2019-01-25T17:01:44.407Z,29.40
2019-01-25T17:02:44.424Z,31.30
2019-01-25T17:05:16.167Z,32.30
2019-01-25T17:09:02.361Z,34.40
2019-01-25T17:14:41.010Z,34.10
2019-01-25T17:15:41.047Z,33.10
2019-01-25T17:20:08.753Z,34.80
2019-01-25T17:21:08.759Z,34.80
2019-01-25T17:21:53.279Z,35.20
2019-01-25T17:24:19.477Z,34.50
2019-01-25T17:25:40.486Z,34.30
2019-01-25T17:26:19.486Z,34.80
2019-01-25T17:33:35.139Z,36.70
2019-01-25T17:36:22.649Z,36.30
2019-01-25T17:37:22.702Z,36.60
2019-01-25T17:38:22.659Z,36.40
2019-01-25T17:39:08.096Z,35.70
2019-01-25T17:41:33.523Z,38.00
2019-01-25T17:44:29.465Z,35.40
2019-01-25T17:45:05.473Z,36.30
2019-01-25T17:46:05.473Z,37.30
2019-01-25T17:47:05.973Z,36.30
2019-01-25T17:51:12.662Z,39.20
2019-01-25T17:52:12.645Z,37.50
2019-01-25T17:53:33.675Z,38.20
2019-01-25T17:54:13.141Z,38.00
2019-01-25T17:55:16.641Z,38.40
2019-01-25T17:59:16.400Z,37.70
2019-01-25T18:00:39.866Z,37.70
2019-01-25T18:04:19.444Z,37.50
2019-01-25T18:05:23.472Z,38.00
2019-01-25T18:08:12.169Z,38.90
2019-01-25T18:08:51.177Z,40.90
2019-01-25T18:10:12.180Z,39.20
2019-01-25T18:11:15.677Z,36.60
2019-01-25T18:12:26.699Z,37.70
2019-01-25T18:14:50.098Z,36.90
2019-01-25T18:16:57.810Z,38.10
2019-01-25T18:19:25.615Z,37.10
2019-01-25T18:22:00.799Z,37.90
2019-01-25T18:24:50.268Z,37.90
2019-01-25T18:30:08.129Z,36.80
2019-01-25T18:31:29.083Z,37.10
2019-01-25T18:33:42.896Z,37.80
2019-01-25T18:35:03.904Z,37.70
2019-01-25T18:36:03.896Z,37.60
2019-01-25T18:38:32.645Z,37.70
2019-01-25T18:39:14.629Z,38.30
2019-01-25T18:43:23.621Z,38.50
2019-01-25T18:44:18.127Z,38.60
2019-01-25T18:45:18.156Z,38.20
2019-01-25T18:47:50.345Z,39.40
2019-01-25T18:48:54.350Z,36.70
2019-01-25T18:50:14.287Z,38.20
2019-01-25T18:53:57.557Z,38.70
2019-01-25T18:54:54.029Z,37.10
2019-01-25T18:55:54.034Z,39.70
2019-01-25T18:58:48.228Z,38.00
2019-01-25T18:59:29.265Z,38.00
2019-01-25T19:03:29.318Z,38.20
2019-01-25T19:06:07.664Z,37.60
2019-01-25T19:07:05.226Z,38.00
2019-01-25T19:08:28.159Z,38.70
2019-01-25T19:12:12.310Z,38.30
2019-01-25T19:14:43.972Z,38.10
2019-01-25T19:15:47.761Z,37.70
2019-01-25T19:16:43.759Z,37.80
2019-01-25T19:17:44.261Z,38.00
2019-01-25T19:18:44.277Z,39.30
2019-01-25T19:19:44.260Z,38.00
2019-01-25T19:20:44.265Z,37.20
2019-01-25T19:23:41.549Z,39.10
2019-01-25T19:24:26.554Z,38.10
2019-01-25T19:25:41.567Z,38.40
2019-01-25T19:28:16.775Z,38.30
2019-01-25T19:29:14.717Z,40.00
2019-01-25T19:31:45.021Z,38.40
2019-01-25T19:32:45.008Z,37.70
2019-01-25T19:33:28.512Z,36.00
2019-01-25T19:34:24.511Z,37.30
2019-01-25T19:35:45.513Z,35.50
2019-01-25T19:36:24.511Z,36.50
2019-01-25T19:37:25.011Z,36.90
2019-01-25T19:38:25.029Z,36.40
2019-01-25T19:42:31.132Z,36.90
2019-01-25T19:43:52.144Z,37.40
2019-01-25T19:47:58.448Z,35.80
2019-01-25T19:48:37.443Z,35.50
2019-01-25T19:52:43.595Z,33.40
2019-01-25T19:53:43.603Z,33.50
2019-01-25T19:56:18.420Z,31.80
2019-01-25T19:57:18.415Z,32.20
2019-01-25T19:58:18.411Z,34.30
2019-01-25T20:02:46.006Z,32.20
2019-01-25T20:03:46.002Z,31.20
2019-01-25T20:04:24.997Z,29.90
2019-01-25T20:05:46.496Z,31.10
2019-01-25T20:06:49.495Z,31.60
2019-01-25T20:07:25.495Z,30.70
2019-01-25T20:08:25.496Z,29.60
2019-01-25T20:10:59.671Z,29.10
2019-01-25T20:12:01.216Z,27.90
2019-01-25T20:12:57.716Z,28.10
2019-01-25T20:15:29.435Z,26.50
2019-01-25T20:16:50.441Z,27.00
2019-01-25T20:17:53.972Z,27.60
2019-01-25T20:18:50.942Z,26.40
2019-01-25T20:24:07.508Z,27.40
2019-01-25T20:25:07.498Z,25.90
2019-01-25T20:26:07.502Z,26.60
2019-01-25T20:27:09.994Z,26.20
2019-01-25T20:28:11.997Z,27.00
2019-01-25T20:32:11.431Z,24.70
2019-01-25T20:36:18.016Z,26.80
2019-01-25T20:37:18.022Z,25.00
2019-01-25T20:38:22.037Z,25.20
2019-01-25T20:43:55.550Z,24.60
2019-01-25T20:44:52.588Z,24.80
2019-01-25T20:45:52.559Z,24.50
2019-01-25T20:48:25.757Z,24.40
2019-01-25T20:50:59.774Z,26.10
2019-01-25T20:51:59.764Z,26.30
2019-01-25T20:52:59.771Z,24.70
2019-01-25T20:54:00.261Z,26.10
2019-01-25T20:55:03.762Z,26.30
2019-01-25T20:56:00.260Z,25.00
2019-01-25T20:57:00.279Z,24.20
2019-01-25T20:58:02.228Z,23.20
2019-01-25T20:59:02.725Z,24.00
2019-01-25T21:01:56.552Z,23.50
2019-01-25T21:04:07.048Z,23.50
2019-01-25T21:07:03.744Z,23.30
2019-01-25T21:07:41.212Z,23.50
2019-01-25T21:09:02.786Z,23.80
2019-01-25T21:11:17.537Z,23.60
2019-01-25T21:12:13.526Z,22.60
2019-01-25T21:13:36.462Z,22.40
2019-01-25T21:15:45.187Z,22.80
2019-01-25T21:17:10.194Z,23.90
2019-01-25T21:18:06.211Z,24.00
2019-01-25T21:22:13.179Z,22.90
2019-01-25T21:23:09.690Z,23.00
2019-01-25T21:24:10.104Z,24.00
2019-01-25T21:25:03.187Z,23.80
2019-01-25T21:25:49.187Z,22.90
2019-01-25T21:26:49.193Z,23.00
2019-01-25T21:31:17.063Z,23.30